createdAt,value
2024-01-24T00:02:09.027Z,10.30
2024-01-24T00:07:00.613Z,10.31
2024-01-24T00:11:52.281Z,10.30
2024-01-24T00:16:43.880Z,10.28
2024-01-24T00:21:38.349Z,10.27
2024-01-24T00:26:29.995Z,10.21
2024-01-24T00:31:21.752Z,10.18
2024-01-24T00:36:13.401Z,10.13
2024-01-24T00:41:05.198Z,10.12
2024-01-24T00:45:57.313Z,10.14
2024-01-24T00:50:48.948Z,10.14
2024-01-24T00:55:40.516Z,10.11
2024-01-24T01:00:32.128Z,10.09
2024-01-24T01:05:23.771Z,10.04
2024-01-24T01:10:15.459Z,10.02
2024-01-24T01:15:07.297Z,9.98
2024-01-24T01:19:59.491Z,9.97
2024-01-24T01:24:51.130Z,9.93
2024-01-24T01:29:42.822Z,9.86
2024-01-24T01:34:34.569Z,9.82
2024-01-24T01:39:26.358Z,9.76
2024-01-24T01:44:18.599Z,9.72
2024-01-24T01:49:10.607Z,9.71
2024-01-24T01:54:02.619Z,9.68
2024-01-24T01:58:54.374Z,9.66
2024-01-24T02:03:47.532Z,9.64
2024-01-24T02:08:41.029Z,9.63
2024-01-24T02:13:33.130Z,9.61
2024-01-24T02:18:25.176Z,9.56
2024-01-24T02:23:19.269Z,9.52
2024-01-24T02:28:10.863Z,9.47
2024-01-24T02:33:03.133Z,9.42
2024-01-24T02:37:55.335Z,9.45
2024-01-24T02:42:46.956Z,9.45
2024-01-24T02:47:38.705Z,9.47
2024-01-24T02:52:32.839Z,9.46
2024-01-24T02:57:24.460Z,9.50
2024-01-24T03:02:16.060Z,9.52
2024-01-24T03:07:07.772Z,9.54
2024-01-24T03:11:59.427Z,9.55
2024-01-24T03:16:51.152Z,9.53
2024-01-24T03:21:43.098Z,9.54
2024-01-24T03:26:34.752Z,9.48
2024-01-24T03:31:26.307Z,9.52
2024-01-24T03:36:17.901Z,9.50
2024-01-24T03:41:09.563Z,9.47
2024-01-24T03:46:01.857Z,9.42
2024-01-24T03:50:53.534Z,9.38
2024-01-24T03:55:45.261Z,9.33
2024-01-24T04:00:36.962Z,9.29
2024-01-24T04:05:28.656Z,9.25
2024-01-24T04:10:20.648Z,9.16
2024-01-24T04:15:12.309Z,9.14
2024-01-24T04:20:04.320Z,9.08
2024-01-24T04:24:56.099Z,9.04
2024-01-24T04:29:47.796Z,9.00
2024-01-24T04:34:39.451Z,8.95
2024-01-24T04:39:31.642Z,8.94
2024-01-24T04:44:23.186Z,8.93
2024-01-24T04:49:26.236Z,8.90
2024-01-24T04:54:26.319Z,8.88
2024-01-24T04:59:17.843Z,8.85
2024-01-24T05:04:10.836Z,8.82
2024-01-24T05:09:03.781Z,8.80
2024-01-24T05:13:56.960Z,8.75
2024-01-24T05:18:48.711Z,8.71
2024-01-24T05:23:41.721Z,8.68
2024-01-24T05:28:33.374Z,8.65
2024-01-24T05:33:25.063Z,8.61
2024-01-24T05:38:16.643Z,8.60
2024-01-24T05:43:08.299Z,8.56
2024-01-24T05:47:59.973Z,8.53
2024-01-24T05:52:52.608Z,8.53
2024-01-24T05:57:47.458Z,8.48
2024-01-24T06:02:39.131Z,8.46
2024-01-24T06:07:31.671Z,8.41
2024-01-24T06:12:23.747Z,8.37
2024-01-24T06:17:15.389Z,8.32
2024-01-24T06:22:07.140Z,8.30
2024-01-24T06:26:58.852Z,8.27
2024-01-24T06:31:51.403Z,8.23
2024-01-24T06:36:43.026Z,8.20
2024-01-24T06:41:34.721Z,8.16
2024-01-24T06:46:29.135Z,8.13
2024-01-24T06:51:20.788Z,8.07
2024-01-24T06:56:12.372Z,8.07
2024-01-24T07:01:04.059Z,8.04
2024-01-24T07:05:55.688Z,8.01
2024-01-24T07:10:47.244Z,7.96
2024-01-24T07:15:39.082Z,7.97
2024-01-24T07:20:30.977Z,7.94
2024-01-24T07:25:22.841Z,7.93
2024-01-24T07:30:15.224Z,7.91
2024-01-24T07:35:07.326Z,7.89
2024-01-24T07:39:59.017Z,7.84
2024-01-24T07:44:50.859Z,7.83
2024-01-24T07:49:43.241Z,7.82
2024-01-24T07:54:35.338Z,7.79
2024-01-24T07:59:27.108Z,7.78
2024-01-24T08:04:19.162Z,7.76
2024-01-24T08:09:12.521Z,7.73
2024-01-24T08:14:05.290Z,7.73
2024-01-24T08:18:57.877Z,7.72
2024-01-24T08:23:51.690Z,7.73
2024-01-24T08:28:46.339Z,7.74
2024-01-24T08:33:38.152Z,7.79
2024-01-24T08:38:31.450Z,7.81
2024-01-24T08:43:23.096Z,7.83
2024-01-24T08:48:15.550Z,7.83
2024-01-24T08:53:07.301Z,7.87
2024-01-24T08:57:59.032Z,7.93
2024-01-24T09:02:50.787Z,7.98
2024-01-24T09:07:43.009Z,8.04
2024-01-24T09:12:34.721Z,8.10
2024-01-24T09:17:27.219Z,8.13
2024-01-24T09:22:18.899Z,8.18
2024-01-24T09:27:10.978Z,8.30
2024-01-24T09:32:02.541Z,8.44
2024-01-24T09:36:55.464Z,8.52
2024-01-24T09:41:52.047Z,8.57
2024-01-24T09:46:43.833Z,8.59
2024-01-24T09:51:36.412Z,8.62
2024-01-24T09:56:30.291Z,8.62
2024-01-24T10:01:23.230Z,8.63
2024-01-24T10:06:17.631Z,8.68
2024-01-24T10:11:10.699Z,8.70
2024-01-24T10:16:09.375Z,8.74
2024-01-24T10:21:06.492Z,8.82
2024-01-24T10:25:59.191Z,8.89
2024-01-24T10:30:51.714Z,8.97
2024-01-24T10:35:44.671Z,9.07
2024-01-24T10:40:38.532Z,9.21
2024-01-24T10:45:32.648Z,9.40
2024-01-24T10:50:26.187Z,9.59
2024-01-24T10:55:18.850Z,9.84
2024-01-24T11:00:12.793Z,10.00
2024-01-24T11:05:09.497Z,10.18
2024-01-24T11:10:17.458Z,10.29
2024-01-24T11:15:14.896Z,10.30
2024-01-24T11:20:08.155Z,10.29
2024-01-24T11:25:00.621Z,10.18
2024-01-24T11:29:53.681Z,10.11
2024-01-24T11:34:45.729Z,10.01
2024-01-24T11:39:41.187Z,9.95
2024-01-24T11:44:33.386Z,9.94
2024-01-24T11:49:27.608Z,9.93
2024-01-24T11:54:19.946Z,9.98
2024-01-24T11:59:12.533Z,10.07
2024-01-24T12:04:05.800Z,10.15
2024-01-24T12:08:58.551Z,10.15
2024-01-24T12:13:51.220Z,10.17
2024-01-24T12:18:42.975Z,10.16
2024-01-24T12:23:35.816Z,10.08
2024-01-24T12:28:27.784Z,10.05
2024-01-24T12:33:20.374Z,10.02
2024-01-24T12:38:12.662Z,10.00
2024-01-24T12:43:06.214Z,9.98
2024-01-24T12:47:57.982Z,9.99
2024-01-24T12:52:50.004Z,9.98
2024-01-24T12:57:43.248Z,9.92
2024-01-24T13:02:35.804Z,9.87
2024-01-24T13:07:28.137Z,9.90
2024-01-24T13:12:19.832Z,9.91
2024-01-24T13:17:11.544Z,9.93
2024-01-24T13:22:03.281Z,9.96
2024-01-24T13:26:55.989Z,10.00
2024-01-24T13:31:48.931Z,10.09
2024-01-24T13:36:42.404Z,10.18
2024-01-24T13:41:34.066Z,10.23
2024-01-24T13:46:25.880Z,10.25
2024-01-24T13:51:19.227Z,10.23
2024-01-24T13:56:17.230Z,10.20
2024-01-24T14:01:09.238Z,10.20
2024-01-24T14:06:01.311Z,10.16
2024-01-24T14:10:53.781Z,10.12
2024-01-24T14:15:45.612Z,10.10
2024-01-24T14:20:37.247Z,10.06
2024-01-24T14:25:28.854Z,9.99
2024-01-24T14:30:20.521Z,9.98
2024-01-24T14:35:15.765Z,9.94
2024-01-24T14:40:08.318Z,9.89
2024-01-24T14:45:02.458Z,9.85
2024-01-24T14:49:54.154Z,9.80
2024-01-24T14:54:46.269Z,9.75
2024-01-24T14:59:38.361Z,9.75
2024-01-24T15:04:30.072Z,9.74
2024-01-24T15:09:22.241Z,9.69
2024-01-24T15:14:14.212Z,9.63
2024-01-24T15:19:05.861Z,9.61
2024-01-24T15:23:57.659Z,9.60
2024-01-24T15:28:49.282Z,9.60
2024-01-24T15:33:42.796Z,9.58
2024-01-24T15:38:36.403Z,9.53
2024-01-24T15:43:28.312Z,9.49
2024-01-24T15:48:20.196Z,9.48
2024-01-24T15:53:12.210Z,9.41
2024-01-24T15:58:04.139Z,9.39
2024-01-24T16:02:56.657Z,9.37
2024-01-24T16:07:48.401Z,9.32
2024-01-24T16:12:40.592Z,9.27
2024-01-24T16:17:33.158Z,9.23
2024-01-24T16:22:32.934Z,9.18
2024-01-24T16:27:28.075Z,9.12
2024-01-24T16:32:20.545Z,9.05
2024-01-24T16:37:12.175Z,8.94
2024-01-24T16:42:06.385Z,8.79
2024-01-24T16:46:58.195Z,8.67
2024-01-24T16:51:50.765Z,8.57
2024-01-24T16:56:42.795Z,8.45
2024-01-24T17:01:34.788Z,8.37
2024-01-24T17:06:26.717Z,8.29
2024-01-24T17:11:19.889Z,8.19
2024-01-24T17:16:11.528Z,8.15
2024-01-24T17:21:05.178Z,8.09
2024-01-24T17:25:57.746Z,8.01
2024-01-24T17:30:49.866Z,7.96
2024-01-24T17:35:43.681Z,7.85
2024-01-24T17:40:35.524Z,7.77
2024-01-24T17:45:27.193Z,7.69
2024-01-24T17:50:19.197Z,7.58
2024-01-24T17:55:11.479Z,7.47
2024-01-24T18:00:06.086Z,7.39
2024-01-24T18:04:58.491Z,7.32
2024-01-24T18:09:54.058Z,7.28
2024-01-24T18:14:45.677Z,7.22
2024-01-24T18:19:37.348Z,7.13
2024-01-24T18:24:29.349Z,6.98
2024-01-24T18:29:20.939Z,6.89
2024-01-24T18:34:12.630Z,6.80
2024-01-24T18:39:04.643Z,6.75
2024-01-24T18:43:56.245Z,6.68
2024-01-24T18:48:48.662Z,6.61
2024-01-24T18:53:44.817Z,6.54
2024-01-24T18:58:36.690Z,6.48
2024-01-24T19:03:28.865Z,6.40
2024-01-24T19:08:20.804Z,6.32
2024-01-24T19:13:12.481Z,6.29
2024-01-24T19:18:10.871Z,6.30
2024-01-24T19:23:05.968Z,6.28
2024-01-24T19:27:57.593Z,6.25
2024-01-24T19:32:49.363Z,6.21
2024-01-24T19:37:41.230Z,6.22
2024-01-24T19:42:32.868Z,6.17
2024-01-24T19:47:29.952Z,6.15
2024-01-24T19:52:21.967Z,6.15
2024-01-24T19:57:14.134Z,6.13
2024-01-24T20:02:05.767Z,6.09
2024-01-24T20:06:57.718Z,6.06
2024-01-24T20:11:49.369Z,6.03
2024-01-24T20:16:41.542Z,6.00
2024-01-24T20:21:38.958Z,5.97
2024-01-24T20:26:30.610Z,5.95
2024-01-24T20:36:28.162Z,5.87
2024-01-24T20:41:19.823Z,5.86
2024-01-24T20:46:11.990Z,5.81
2024-01-24T20:51:04.882Z,5.78
2024-01-24T20:55:56.978Z,5.78
2024-01-24T21:00:48.889Z,5.77
2024-01-24T21:05:40.662Z,5.77
2024-01-24T21:10:32.917Z,5.74
2024-01-24T21:15:24.675Z,5.77
2024-01-24T21:20:16.515Z,5.76
2024-01-24T21:25:09.138Z,5.76
2024-01-24T21:30:01.101Z,5.74
2024-01-24T21:34:53.139Z,5.72
2024-01-24T21:39:44.814Z,5.68
2024-01-24T21:44:36.469Z,5.65
2024-01-24T21:49:29.238Z,5.63
2024-01-24T21:54:21.093Z,5.61
2024-01-24T21:59:12.780Z,5.59
2024-01-24T22:04:04.890Z,5.57
2024-01-24T22:09:00.515Z,5.53
2024-01-24T22:13:52.185Z,5.54
2024-01-24T22:18:47.997Z,5.56
2024-01-24T22:23:41.047Z,5.53
2024-01-24T22:28:32.733Z,5.53
2024-01-24T22:33:24.697Z,5.51
2024-01-24T22:38:16.570Z,5.49
2024-01-24T22:43:08.286Z,5.49
2024-01-24T22:48:01.670Z,5.51
2024-01-24T22:52:53.426Z,5.46
2024-01-24T22:57:50.160Z,5.46
2024-01-24T23:02:42.403Z,5.47
2024-01-24T23:07:34.168Z,5.48
2024-01-24T23:12:26.180Z,5.50
2024-01-24T23:17:18.114Z,5.46
2024-01-24T23:22:09.773Z,5.45
2024-01-24T23:27:01.511Z,5.41
2024-01-24T23:31:53.094Z,5.38
2024-01-24T23:36:45.477Z,5.36
2024-01-24T23:41:40.212Z,5.34
2024-01-24T23:46:34.512Z,5.30
2024-01-24T23:51:26.895Z,5.29
2024-01-24T23:56:18.655Z,5.29
